createdAt,value
2017-11-04T00:00:38.083Z,11.93
2017-11-04T00:03:12.287Z,10.73
2017-11-04T00:05:46.507Z,12.20
2017-11-04T00:08:20.715Z,12.03
2017-11-04T00:10:54.253Z,12.47
2017-11-04T00:13:27.962Z,12.97
2017-11-04T00:16:02.245Z,13.20
2017-11-04T00:18:36.458Z,12.37
2017-11-04T00:21:10.681Z,12.30
2017-11-04T00:23:44.894Z,13.30
2017-11-04T00:26:18.423Z,13.50
2017-11-04T00:28:51.954Z,15.53
2017-11-04T00:31:25.606Z,16.70
2017-11-04T00:33:59.162Z,15.50
2017-11-04T00:36:32.611Z,14.67
2017-11-04T00:39:06.174Z,13.30
2017-11-04T00:41:39.620Z,13.40
2017-11-04T00:44:13.151Z,13.73
2017-11-04T00:46:46.742Z,14.23
2017-11-04T00:49:20.190Z,14.43
2017-11-04T00:51:53.654Z,15.57
2017-11-04T00:54:28.011Z,13.43
2017-11-04T00:57:02.231Z,13.70
2017-11-04T00:59:35.674Z,16.10
2017-11-04T01:02:09.319Z,15.40
2017-11-04T01:04:42.997Z,15.00
2017-11-04T01:07:17.447Z,13.43
2017-11-04T01:09:51.649Z,14.03
2017-11-04T01:12:25.187Z,14.70
2017-11-04T01:14:58.743Z,13.90
2017-11-04T01:17:32.191Z,14.50
2017-11-04T01:20:05.726Z,14.33
2017-11-04T01:22:39.370Z,14.87
2017-11-04T01:25:12.934Z,14.40
2017-11-04T01:27:46.379Z,14.27
2017-11-04T01:30:19.939Z,14.60
2017-11-04T01:32:53.462Z,14.70
2017-11-04T01:35:26.977Z,18.87
2017-11-04T01:38:01.258Z,17.07
2017-11-04T01:40:34.792Z,17.70
2017-11-04T01:43:08.318Z,20.30
2017-11-04T01:45:41.846Z,23.80
2017-11-04T01:48:14.882Z,15.53
2017-11-04T01:50:48.376Z,17.50
2017-11-04T01:53:21.568Z,16.70
2017-11-04T01:55:55.254Z,14.43
2017-11-04T01:58:28.872Z,17.37
2017-11-04T02:01:03.292Z,16.87
2017-11-04T02:03:36.783Z,15.10
2017-11-04T02:06:10.289Z,16.83
2017-11-04T02:08:43.949Z,16.40
2017-11-04T02:11:20.463Z,17.03
2017-11-04T02:13:54.154Z,16.70
2017-11-04T02:16:27.754Z,15.53
2017-11-04T02:19:01.378Z,15.40
2017-11-04T02:21:35.764Z,15.97
2017-11-04T02:24:09.379Z,16.77
2017-11-04T02:26:42.970Z,15.10
2017-11-04T02:29:17.263Z,16.30
2017-11-04T02:31:51.008Z,15.73
2017-11-04T02:34:24.563Z,16.03
2017-11-04T02:36:59.123Z,16.70
2017-11-04T02:39:32.722Z,15.60
2017-11-04T02:42:06.222Z,17.57
2017-11-04T02:44:39.823Z,16.87
2017-11-04T02:47:13.422Z,17.33
2017-11-04T02:49:47.081Z,16.70
2017-11-04T02:52:20.623Z,16.67
2017-11-04T02:54:54.319Z,15.07
2017-11-04T02:57:28.633Z,16.57
2017-11-04T03:00:02.247Z,15.73
2017-11-04T03:02:35.819Z,15.70
2017-11-04T03:05:09.661Z,16.87
2017-11-04T03:07:43.135Z,15.03
2017-11-04T03:10:16.766Z,16.17
2017-11-04T03:12:50.457Z,16.30
2017-11-04T03:15:24.158Z,15.00
2017-11-04T03:17:57.766Z,16.70
2017-11-04T03:20:31.435Z,16.13
2017-11-04T03:23:05.023Z,15.37
2017-11-04T03:25:38.706Z,16.80
2017-11-04T03:28:12.272Z,16.23
2017-11-04T03:30:46.396Z,15.50
2017-11-04T03:33:20.066Z,16.47
2017-11-04T03:35:53.647Z,16.90
2017-11-04T03:38:27.095Z,15.97
2017-11-04T03:41:00.788Z,15.83
2017-11-04T03:43:34.283Z,17.37
2017-11-04T03:46:07.882Z,15.93
2017-11-04T03:48:42.166Z,16.27
2017-11-04T03:51:15.848Z,16.40
2017-11-04T03:53:50.219Z,16.00
2017-11-04T03:56:23.929Z,16.80
2017-11-04T03:58:58.822Z,15.63
2017-11-04T04:01:32.454Z,15.73
2017-11-04T04:04:06.165Z,15.57
2017-11-04T04:06:39.763Z,15.40
2017-11-04T04:09:13.359Z,17.90
2017-11-04T04:11:46.958Z,16.57
2017-11-04T04:14:20.411Z,17.47
2017-11-04T04:16:54.750Z,17.50
2017-11-04T04:19:28.353Z,17.77
2017-11-04T04:22:02.713Z,16.17
2017-11-04T04:24:36.250Z,16.70
2017-11-04T04:27:10.492Z,15.23
2017-11-04T04:29:44.699Z,15.83
2017-11-04T04:32:18.283Z,17.10
2017-11-04T04:34:52.041Z,15.70
2017-11-04T04:37:25.686Z,16.67
2017-11-04T04:39:59.452Z,18.10
2017-11-04T04:42:33.102Z,16.83
2017-11-04T04:45:06.851Z,16.27
2017-11-04T04:47:41.343Z,16.23
2017-11-04T04:50:15.038Z,16.23
2017-11-04T04:52:48.639Z,16.73
2017-11-04T04:55:23.191Z,15.50
2017-11-04T04:57:56.999Z,16.20
2017-11-04T05:00:31.123Z,16.60
2017-11-04T05:03:06.356Z,16.30
2017-11-04T05:05:39.802Z,15.97
2017-11-04T05:08:13.327Z,17.20
2017-11-04T05:10:46.949Z,17.00
2017-11-04T05:13:20.651Z,17.83
2017-11-04T05:15:55.049Z,17.90
2017-11-04T05:18:28.768Z,17.27
2017-11-04T05:21:02.426Z,14.37
2017-11-04T05:23:35.946Z,15.97
2017-11-04T05:26:10.171Z,16.70
2017-11-04T05:28:43.882Z,16.13
2017-11-04T05:31:17.494Z,16.07
2017-11-04T05:33:51.086Z,17.47
2017-11-04T05:36:25.517Z,16.03
2017-11-04T05:38:59.122Z,17.80
2017-11-04T05:41:32.825Z,16.23
2017-11-04T05:44:06.420Z,16.40
2017-11-04T05:46:40.743Z,16.50
2017-11-04T05:49:14.482Z,17.20
2017-11-04T05:51:49.370Z,16.03
2017-11-04T05:54:22.980Z,17.90
2017-11-04T05:56:57.290Z,17.57
2017-11-04T05:59:30.871Z,16.47
2017-11-04T06:02:04.462Z,16.80
2017-11-04T06:04:38.051Z,16.97
2017-11-04T06:07:11.497Z,17.07
2017-11-04T06:09:45.191Z,17.10
2017-11-04T06:12:18.750Z,16.33
2017-11-04T06:14:52.394Z,15.47
2017-11-04T06:17:25.999Z,16.30
2017-11-04T06:19:59.499Z,18.30
2017-11-04T06:22:33.302Z,15.30
2017-11-04T06:25:06.804Z,18.13
2017-11-04T06:27:40.303Z,17.03
2017-11-04T06:30:13.942Z,16.27
2017-11-04T06:32:47.736Z,16.53
2017-11-04T06:35:21.314Z,17.43
2017-11-04T06:37:55.115Z,16.80
2017-11-04T06:40:28.809Z,18.10
2017-11-04T06:43:02.515Z,16.07
2017-11-04T06:45:36.110Z,17.40
2017-11-04T06:48:09.822Z,15.57
2017-11-04T06:50:44.244Z,17.10
2017-11-04T06:53:17.743Z,16.13
2017-11-04T06:55:51.295Z,18.87
2017-11-04T06:58:25.048Z,16.37
2017-11-04T07:00:59.302Z,16.83
2017-11-04T07:03:32.923Z,15.90
2017-11-04T07:06:06.562Z,17.07
2017-11-04T07:08:40.051Z,16.77
2017-11-04T07:11:13.614Z,16.73
2017-11-04T07:13:47.055Z,17.03
2017-11-04T07:16:21.379Z,17.70
2017-11-04T07:18:55.590Z,18.23
2017-11-04T07:21:29.394Z,18.03
2017-11-04T07:24:03.891Z,18.13
2017-11-04T07:26:37.729Z,16.10
2017-11-04T07:29:11.278Z,17.90
2017-11-04T07:31:45.033Z,16.17
2017-11-04T07:34:18.514Z,18.50
2017-11-04T07:36:52.078Z,17.90
2017-11-04T07:39:26.635Z,17.57
2017-11-04T07:42:00.231Z,16.50
2017-11-04T07:44:33.867Z,17.67
2017-11-04T07:47:07.442Z,17.57
2017-11-04T07:49:41.103Z,16.80
2017-11-04T07:52:14.623Z,18.17
2017-11-04T07:54:48.847Z,18.53
2017-11-04T07:57:22.555Z,18.50
2017-11-04T07:59:57.035Z,18.20
2017-11-04T08:02:30.890Z,19.07
2017-11-04T08:05:04.475Z,18.70
2017-11-04T08:07:38.074Z,18.37
2017-11-04T08:10:11.655Z,18.30
2017-11-04T08:12:45.203Z,18.87
2017-11-04T08:15:19.711Z,18.20
2017-11-04T08:17:54.130Z,17.70
2017-11-04T08:20:27.843Z,18.80
2017-11-04T08:23:01.343Z,17.07
2017-11-04T08:25:35.046Z,19.00
2017-11-04T08:28:08.526Z,18.23
2017-11-04T08:30:45.090Z,18.57
2017-11-04T08:33:18.922Z,20.13
2017-11-04T08:35:53.338Z,20.10
2017-11-04T08:38:27.460Z,17.73
2017-11-04T08:41:01.171Z,18.23
2017-11-04T08:43:34.747Z,18.03
2017-11-04T08:46:08.403Z,18.43
2017-11-04T08:48:42.023Z,19.97
2017-11-04T08:51:15.614Z,18.67
2017-11-04T08:53:49.231Z,19.00
2017-11-04T08:56:23.122Z,17.93
2017-11-04T08:58:56.647Z,20.43
2017-11-04T09:01:30.222Z,19.53
2017-11-04T09:04:03.974Z,17.47
2017-11-04T09:06:38.463Z,19.63
2017-11-04T09:09:12.179Z,20.73
2017-11-04T09:11:46.010Z,19.43
2017-11-04T09:14:19.592Z,20.10
2017-11-04T09:16:53.199Z,18.97
2017-11-04T09:19:27.736Z,19.23
2017-11-04T09:22:02.032Z,20.43
2017-11-04T09:24:36.362Z,20.90
2017-11-04T09:27:10.275Z,21.40
2017-11-04T09:29:44.084Z,23.10
2017-11-04T09:32:17.742Z,21.80
2017-11-04T09:34:51.362Z,22.17
2017-11-04T09:37:24.988Z,23.93
2017-11-04T09:39:58.446Z,22.63
2017-11-04T09:42:33.017Z,20.67
2017-11-04T09:45:06.679Z,20.33
2017-11-04T09:47:41.107Z,22.30
2017-11-04T09:50:14.582Z,21.10
2017-11-04T09:52:48.166Z,21.20
2017-11-04T09:55:21.615Z,22.50
2017-11-04T09:57:55.379Z,22.40
2017-11-04T10:00:29.075Z,24.17
2017-11-04T10:03:03.459Z,23.50
2017-11-04T10:05:36.902Z,23.60
2017-11-04T10:08:11.326Z,24.87
2017-11-04T10:10:44.862Z,25.53
2017-11-04T10:13:19.264Z,23.77
2017-11-04T10:15:52.762Z,23.07
2017-11-04T10:18:26.971Z,23.83
2017-11-04T10:21:00.462Z,24.27
2017-11-04T10:23:33.934Z,22.87
2017-11-04T10:26:07.400Z,28.40
2017-11-04T10:28:40.870Z,27.23
2017-11-04T10:31:15.200Z,24.60
2017-11-04T10:33:49.002Z,24.90
2017-11-04T10:36:23.387Z,21.90
2017-11-04T10:38:57.551Z,25.30
2017-11-04T10:41:31.155Z,24.63
2017-11-04T10:44:04.643Z,25.77
2017-11-04T10:46:38.243Z,24.60
2017-11-04T10:49:12.043Z,24.00
2017-11-04T10:51:45.658Z,24.10
2017-11-04T10:54:19.251Z,24.10
2017-11-04T10:56:52.831Z,24.40
2017-11-04T10:59:26.563Z,24.13
2017-11-04T11:02:00.159Z,26.47
2017-11-04T11:04:33.758Z,25.60
2017-11-04T11:07:07.695Z,24.53
2017-11-04T11:09:42.087Z,25.17
2017-11-04T11:12:15.705Z,22.87
2017-11-04T11:14:49.398Z,24.30
2017-11-04T11:17:23.091Z,23.20
2017-11-04T11:19:56.603Z,25.17
2017-11-04T11:22:30.187Z,22.57
2017-11-04T11:25:03.742Z,21.67
2017-11-04T11:27:37.466Z,21.17
2017-11-04T11:30:11.307Z,21.87
2017-11-04T11:32:45.107Z,22.13
2017-11-04T11:35:18.686Z,21.67
2017-11-04T11:37:53.034Z,22.27
2017-11-04T11:40:26.939Z,21.80
2017-11-04T11:43:00.507Z,21.90
2017-11-04T11:45:34.450Z,22.20
2017-11-04T11:48:08.355Z,21.37
2017-11-04T11:50:41.902Z,22.40
2017-11-04T11:53:16.166Z,21.50
2017-11-04T11:55:49.838Z,21.80
2017-11-04T11:58:23.469Z,21.80
2017-11-04T12:00:57.019Z,22.30
2017-11-04T12:03:30.776Z,20.67
2017-11-04T12:06:05.254Z,23.27
2017-11-04T12:08:38.999Z,19.70
2017-11-04T12:11:12.559Z,22.50
2017-11-04T12:13:46.198Z,22.90
2017-11-04T12:16:19.911Z,21.30
2017-11-04T12:18:53.409Z,21.80
2017-11-04T12:21:27.202Z,21.53
2017-11-04T12:24:01.338Z,22.70
2017-11-04T12:26:34.920Z,22.00
2017-11-04T12:29:08.428Z,22.80
2017-11-04T12:31:42.235Z,22.77
2017-11-04T12:34:15.687Z,22.83
2017-11-04T12:36:50.253Z,23.90
2017-11-04T12:39:23.751Z,22.80
2017-11-04T12:41:58.171Z,22.90
2017-11-04T12:44:31.851Z,24.13
2017-11-04T12:47:05.535Z,22.97
2017-11-04T12:49:39.783Z,21.03
2017-11-04T12:52:13.510Z,21.97
2017-11-04T12:54:47.058Z,20.17
2017-11-04T12:57:20.855Z,21.77
2017-11-04T12:59:55.424Z,19.90
2017-11-04T13:02:28.982Z,19.97
2017-11-04T13:05:02.619Z,19.80
2017-11-04T13:07:36.296Z,20.97
2017-11-04T13:10:09.902Z,19.77
2017-11-04T13:12:43.491Z,19.07
2017-11-04T13:15:17.852Z,18.47
2017-11-04T13:17:51.346Z,18.57
2017-11-04T13:20:24.957Z,17.40
2017-11-04T13:22:59.060Z,21.03
2017-11-04T13:25:33.173Z,18.20
2017-11-04T13:28:07.491Z,18.40
2017-11-04T13:30:41.297Z,18.67
2017-11-04T13:33:14.999Z,21.27
2017-11-04T13:35:48.799Z,19.70
2017-11-04T13:38:22.404Z,17.80
2017-11-04T13:40:56.511Z,18.20
2017-11-04T13:43:30.183Z,18.60
2017-11-04T13:46:03.720Z,18.07
2017-11-04T13:48:37.525Z,16.23
2017-11-04T13:51:12.038Z,18.37
2017-11-04T13:53:45.849Z,17.80
2017-11-04T13:56:20.743Z,17.70
2017-11-04T13:58:54.358Z,18.37
2017-11-04T14:01:28.285Z,17.63
2017-11-04T14:04:01.886Z,20.90
2017-11-04T14:06:35.404Z,19.90
2017-11-04T14:09:09.107Z,19.30
2017-11-04T14:11:42.658Z,20.87
2017-11-04T14:14:16.291Z,18.90
2017-11-04T14:16:49.791Z,18.23
2017-11-04T14:19:23.594Z,20.03
2017-11-04T14:21:57.200Z,17.53
2017-11-04T14:24:30.775Z,19.57
2017-11-04T14:27:04.378Z,18.90
2017-11-04T14:29:37.962Z,17.23
2017-11-04T14:32:11.462Z,17.53
2017-11-04T14:34:45.214Z,18.67
2017-11-04T14:37:18.871Z,18.00
2017-11-04T14:39:53.923Z,19.13
2017-11-04T14:42:27.648Z,16.13
2017-11-04T14:45:01.139Z,18.70
2017-11-04T14:47:34.751Z,18.73
2017-11-04T14:50:08.306Z,18.87
2017-11-04T14:52:41.895Z,17.07
2017-11-04T14:55:15.643Z,19.57
2017-11-04T14:57:49.943Z,18.07
2017-11-04T15:00:23.680Z,17.90
2017-11-04T15:02:57.226Z,17.40
2017-11-04T15:05:30.722Z,19.70
2017-11-04T15:08:05.082Z,18.47
2017-11-04T15:10:38.896Z,17.70
2017-11-04T15:13:12.495Z,17.87
2017-11-04T15:15:46.294Z,18.10
2017-11-04T15:18:19.974Z,19.80
2017-11-04T15:20:53.598Z,17.97
2017-11-04T15:23:27.914Z,18.70
2017-11-04T15:26:01.422Z,18.37
2017-11-04T15:28:34.963Z,17.63
2017-11-04T15:31:08.414Z,18.57
2017-11-04T15:33:42.115Z,18.33
2017-11-04T15:36:15.715Z,18.47
2017-11-04T15:38:49.274Z,18.80
2017-11-04T15:41:22.722Z,19.23
2017-11-04T15:43:56.486Z,19.70
2017-11-04T15:46:30.014Z,17.87
2017-11-04T15:49:04.033Z,20.63
2017-11-04T15:51:37.725Z,18.60
2017-11-04T15:54:11.337Z,20.77
2017-11-04T15:56:44.930Z,22.97
2017-11-04T15:59:18.543Z,23.60
2017-11-04T16:01:52.344Z,21.90
2017-11-04T16:04:26.142Z,22.97
2017-11-04T16:06:59.743Z,22.07
2017-11-04T16:09:33.351Z,21.73
2017-11-04T16:12:07.154Z,21.47
2017-11-04T16:14:40.955Z,20.70
2017-11-04T16:17:14.662Z,19.23
2017-11-04T16:19:48.419Z,20.50
2017-11-04T16:22:22.054Z,20.07
2017-11-04T16:24:55.871Z,20.20
2017-11-04T16:27:29.411Z,20.87
2017-11-04T16:30:03.186Z,19.17
2017-11-04T16:32:37.192Z,18.70
2017-11-04T16:35:10.887Z,18.33
2017-11-04T16:37:44.548Z,18.90
2017-11-04T16:40:18.197Z,17.00
2017-11-04T16:42:51.998Z,18.53
2017-11-04T16:45:26.519Z,18.93
2017-11-04T16:48:00.329Z,19.27
2017-11-04T16:50:34.835Z,16.70
2017-11-04T16:53:08.514Z,18.10
2017-11-04T16:55:43.059Z,18.93
2017-11-04T16:58:16.878Z,16.70
2017-11-04T17:00:50.442Z,18.23
2017-11-04T17:03:24.081Z,15.40
2017-11-04T17:05:57.782Z,16.50
2017-11-04T17:08:31.367Z,15.03
2017-11-04T17:11:04.992Z,14.90
2017-11-04T17:13:38.686Z,15.00
2017-11-04T17:16:12.983Z,13.80
2017-11-04T17:18:46.475Z,14.77
2017-11-04T17:21:20.317Z,14.20
2017-11-04T17:23:53.911Z,14.40
2017-11-04T17:26:27.810Z,14.03
2017-11-04T17:29:01.615Z,14.27
2017-11-04T17:31:35.343Z,14.03
2017-11-04T17:34:09.122Z,14.97
2017-11-04T17:36:43.561Z,13.03
2017-11-04T17:39:17.843Z,13.57
2017-11-04T17:41:52.290Z,13.17
2017-11-04T17:44:25.762Z,14.73
2017-11-04T17:46:59.390Z,14.43
2017-11-04T17:49:33.509Z,13.80
2017-11-04T17:52:07.110Z,14.10
2017-11-04T17:54:40.887Z,14.43
2017-11-04T17:57:14.462Z,14.30
2017-11-04T17:59:48.015Z,14.80
2017-11-04T18:02:21.716Z,17.63
2017-11-04T18:04:55.295Z,17.07
2017-11-04T18:07:28.920Z,18.53
2017-11-04T18:10:02.525Z,17.30
2017-11-04T18:12:36.088Z,17.13
2017-11-04T18:15:09.708Z,14.87
2017-11-04T18:17:43.347Z,15.23
2017-11-04T18:20:16.894Z,15.63
2017-11-04T18:22:50.627Z,15.23
2017-11-04T18:25:24.194Z,15.77
2017-11-04T18:27:58.289Z,15.53
2017-11-04T18:30:32.044Z,16.47
2017-11-04T18:33:05.490Z,14.87
2017-11-04T18:35:39.142Z,12.93
2017-11-04T18:38:12.744Z,13.47
2017-11-04T18:40:47.054Z,13.60
2017-11-04T18:43:21.442Z,13.83
2017-11-04T18:45:55.174Z,14.03
2017-11-04T18:48:28.777Z,13.20
2017-11-04T18:51:02.383Z,13.77
2017-11-04T18:53:36.703Z,13.67
2017-11-04T18:56:10.304Z,12.50
2017-11-04T18:58:43.759Z,13.30
2017-11-04T19:01:17.546Z,12.83
2017-11-04T19:03:51.406Z,13.10
2017-11-04T19:06:24.913Z,13.00
2017-11-04T19:08:58.919Z,13.60
2017-11-04T19:11:32.506Z,14.67
2017-11-04T19:14:06.119Z,13.40
2017-11-04T19:16:39.690Z,14.87
2017-11-04T19:19:14.139Z,13.87
2017-11-04T19:21:47.855Z,14.30
2017-11-04T19:24:21.535Z,13.57
2017-11-04T19:26:55.251Z,13.40
2017-11-04T19:29:28.814Z,13.27
2017-11-04T19:32:02.410Z,12.90
2017-11-04T19:34:36.050Z,12.07
2017-11-04T19:37:09.527Z,11.30
2017-11-04T19:39:43.150Z,12.07
2017-11-04T19:42:16.751Z,11.67
2017-11-04T19:44:50.256Z,11.63
2017-11-04T19:47:24.667Z,12.20
2017-11-04T19:49:58.275Z,10.80
2017-11-04T19:52:31.970Z,13.47
2017-11-04T19:55:06.371Z,12.00
2017-11-04T19:57:40.791Z,14.53
2017-11-04T20:00:15.301Z,13.00
2017-11-04T20:02:49.036Z,12.53
2017-11-04T20:05:22.749Z,13.13
2017-11-04T20:07:56.343Z,14.50
2017-11-04T20:10:30.027Z,13.93
2017-11-04T20:13:03.747Z,15.60
2017-11-04T20:15:38.763Z,13.23
2017-11-04T20:18:12.800Z,13.00
2017-11-04T20:20:46.607Z,14.97
2017-11-04T20:23:20.624Z,15.73
2017-11-04T20:25:54.171Z,12.67
2017-11-04T20:28:27.895Z,12.90
2017-11-04T20:31:01.600Z,15.30
2017-11-04T20:33:35.224Z,12.77
2017-11-04T20:36:08.817Z,15.60
2017-11-04T20:38:42.433Z,12.93
2017-11-04T20:41:16.128Z,13.30
2017-11-04T20:43:49.723Z,14.40
2017-11-04T20:46:23.222Z,12.70
2017-11-04T20:48:56.790Z,12.50
2017-11-04T20:51:30.574Z,12.10
2017-11-04T20:54:04.138Z,12.83
2017-11-04T20:56:38.443Z,13.43
2017-11-04T20:59:12.255Z,12.30
2017-11-04T21:01:46.055Z,13.40
2017-11-04T21:04:19.672Z,13.00
2017-11-04T21:06:53.323Z,11.83
2017-11-04T21:09:26.964Z,11.60
2017-11-04T21:12:01.274Z,12.30
2017-11-04T21:14:34.856Z,13.30
2017-11-04T21:17:08.434Z,12.17
2017-11-04T21:19:41.975Z,12.13
2017-11-04T21:22:16.358Z,11.50
2017-11-04T21:24:50.004Z,12.53
2017-11-04T21:27:23.503Z,11.57
2017-11-04T21:29:57.070Z,12.73
2017-11-04T21:32:31.618Z,12.00
2017-11-04T21:35:05.179Z,12.13
2017-11-04T21:37:38.870Z,11.67
2017-11-04T21:40:13.858Z,11.83
2017-11-04T21:42:47.667Z,11.80
2017-11-04T21:45:21.186Z,11.10
2017-11-04T21:47:54.803Z,12.60
2017-11-04T21:50:28.372Z,21.07
2017-11-04T21:53:01.935Z,16.30
2017-11-04T21:55:35.766Z,13.73
2017-11-04T21:58:09.528Z,11.50
2017-11-04T22:00:43.384Z,11.70
2017-11-04T22:03:16.984Z,10.90
2017-11-04T22:05:50.442Z,11.50
2017-11-04T22:08:23.958Z,11.73
2017-11-04T22:10:57.678Z,11.50
2017-11-04T22:13:31.268Z,11.67
2017-11-04T22:16:04.976Z,10.60
2017-11-04T22:18:38.637Z,10.70
2017-11-04T22:21:12.191Z,10.70
2017-11-04T22:23:45.726Z,11.70
2017-11-04T22:26:19.171Z,10.53
2017-11-04T22:28:52.758Z,10.97
2017-11-04T22:31:26.278Z,12.00
2017-11-04T22:33:59.794Z,10.13
2017-11-04T22:36:33.235Z,11.27
2017-11-04T22:39:06.746Z,12.20
2017-11-04T22:41:40.421Z,10.53
2017-11-04T22:44:14.672Z,10.90
2017-11-04T22:46:48.202Z,9.87
2017-11-04T22:49:21.835Z,10.57
2017-11-04T22:51:55.283Z,11.00
2017-11-04T22:54:28.799Z,9.40
2017-11-04T22:57:03.073Z,8.83
2017-11-04T22:59:37.379Z,7.70
2017-11-04T23:02:11.019Z,8.20
2017-11-04T23:04:45.322Z,7.00
2017-11-04T23:07:18.856Z,7.93
2017-11-04T23:09:52.435Z,7.03
2017-11-04T23:12:25.958Z,7.60
2017-11-04T23:14:59.598Z,6.57
2017-11-04T23:17:33.038Z,7.33
2017-11-04T23:20:07.315Z,5.70
2017-11-04T23:22:40.846Z,6.20
2017-11-04T23:25:14.375Z,5.23
2017-11-04T23:27:48.646Z,6.67
2017-11-04T23:30:22.855Z,5.97
2017-11-04T23:32:57.175Z,6.30
2017-11-04T23:35:31.382Z,6.13
2017-11-04T23:38:04.958Z,6.17
2017-11-04T23:40:38.398Z,6.63
2017-11-04T23:43:11.926Z,6.17
2017-11-04T23:45:45.390Z,5.53
2017-11-04T23:48:19.595Z,5.73
2017-11-04T23:50:53.815Z,6.40
2017-11-04T23:53:28.027Z,6.47
2017-11-04T23:56:02.247Z,6.40
2017-11-04T23:58:36.580Z,5.13
